Latest Weather Observations for Ernabella/Pukatja

IDD60801

Issued at 12:21 pm CST Sunday 29 May 2022 (issued every 10 minutes, with the page automatically refreshed every 10 minutes)

About weather observations | Map of weather stations | Latest weather observations for NT | Other Formats
Station Details ID: 016097 Name: PUKATJA Lat: -26.26 Lon: 132.18 Height: 703.2 m
Data from the previous 72 hours. | See also: Recent months at Ernabella/Pukatja
Date/Time
CST
Temp
°C
App
Temp
°C
Dew
Point
°C
Rel
Hum
%
Delta-T
°C
Wind Press
QNH
hPa
Press
MSL
hPa
Rain since
9am
mm
Dir  Spd
km/h
Gust
km/h
Spd
kts
Gust
kts
29/12:00pm 17.1 14.1 12.4 74 2.7 WNW 20 28 11 15 1010.9 1009.1 0.0
29/11:30am 16.0 14.2 12.2 78 2.2 WNW 13 17 7 9 1011.4 1009.6 0.0
29/11:00am 15.2 13.8 12.3 83 1.6 WNW 11 17 6 9 1012.1 1010.4 0.0
29/10:30am 14.7 12.4 11.7 82 1.7 WNW 15 20 8 11 1013.0 1011.3 0.0
29/10:00am 15.3 11.7 10.5 73 2.6 WNW 20 30 11 16 1013.1 1011.4 0.0
29/09:30am 15.3 15.6 12.1 81 1.8 SE 2 7 1 4 1012.6 1010.8 0.0
29/09:00am 14.9 15.1 11.9 82 1.7 SE 2 7 1 4 1012.5 1010.7 0.2
29/08:30am 14.8 13.2 11.6 81 1.8 SW 11 13 6 7 1012.8 1011.1 0.2
29/08:00am 14.9 14.3 11.7 81 1.8 WNW 6 11 3 6 1012.4 1010.6 0.2
29/07:30am 14.4 13.9 12.1 86 1.3 WNW 6 7 3 4 1012.0 1010.3 0.2
29/07:00am 14.5 13.8 11.5 82 1.7 WNW 6 7 3 4 1011.8 1010.1 0.2
29/06:30am 14.2 13.4 11.2 82 1.7 ENE 6 7 3 4 1012.1 1010.4 0.2
29/06:00am 14.2 13.0 10.2 77 2.2 N 7 11 4 6 1012.2 1010.5 0.2
29/05:30am 14.1 12.2 9.1 72 2.6 N 9 15 5 8 1012.5 1010.7 0.2
29/05:00am 13.8 13.2 9.0 73 2.5 E 2 9 1 5 1012.7 1010.9 0.2
29/04:30am 13.7 12.5 9.6 76 2.2 NE 6 9 3 5 1013.2 1011.5 0.2
29/04:00am 14.2 12.7 9.2 72 2.6 SSE 7 13 4 7 1013.4 1011.7 0.0
29/03:30am 15.4 11.8 8.4 63 3.7 NNW 17 22 9 12 1013.4 1011.7 0.0
29/03:00am 15.9 12.9 7.7 58 4.3 NNW 13 22 7 12 1014.0 1012.2 0.0
29/02:30am 15.3 12.4 8.1 62 3.8 ENE 13 17 7 9 1014.0 1012.2 0.0
29/02:00am 15.3 12.1 8.5 64 3.6 ENE 15 19 8 10 1014.2 1012.5 0.0
29/01:30am 16.2 13.0 6.9 54 4.8 ENE 13 19 7 10 1014.6 1012.9 0.0
29/01:00am 16.2 13.8 7.2 55 4.6 NE 9 15 5 8 1014.6 1012.9 0.0
29/12:30am 17.0 14.5 6.5 50 5.4 N 9 15 5 8 1014.9 1013.2 0.0
29/12:00am 15.6 13.9 7.4 58 4.2 NNE 6 11 3 6 1014.8 1013.1 0.0
 
Date/Time
CST
Temp
°C
App
Temp
°C
Dew
Point
°C
Rel
Hum
%
Delta-T
°C
Wind Press
QNH
hPa
Press
MSL
hPa
Rain since
9am
mm
Dir  Spd
km/h
Gust
km/h
Spd
kts
Gust
kts
28/11:30pm 15.3 13.4 7.6 60 4.0 ENE 7 9 4 5 1014.9 1013.2 0.0
28/11:00pm 15.6 13.0 7.6 59 4.1 E 11 13 6 7 1015.4 1013.7 0.0
28/10:30pm 15.8 13.9 7.6 58 4.2 E 7 11 4 6 1015.5 1013.8 0.0
28/10:00pm 15.6 14.0 8.1 61 3.9 NE 6 7 3 4 1015.6 1013.9 0.0
28/09:30pm 16.1 13.9 7.8 58 4.3 E 9 11 5 6 1016.1 1014.4 0.0
28/09:00pm 16.3 14.7 7.8 57 4.4 ENE 6 7 3 4 1016.3 1014.6 0.0
28/08:30pm 16.6 15.0 8.1 57 4.5 ENE 6 7 3 4 1015.8 1014.1 0.0
28/08:00pm 16.1 14.4 8.3 60 4.1 NE 7 11 4 6 1016.1 1014.4 0.0
28/07:30pm 16.6 15.1 8.3 58 4.4 NNW 6 7 3 4 1016.1 1014.4 0.0
28/07:00pm 17.1 16.6 8.0 55 4.8 CALM 0 0 0 0 1015.4 1013.7 0.0
28/06:30pm 17.9 17.2 7.0 49 5.7 CALM 0 0 0 0 1015.2 1013.5 0.0
28/06:00pm 18.8 16.8 6.3 44 6.4 N 6 7 3 4 1015.1 1013.4 0.0
28/05:30pm 19.7 17.5 6.4 42 6.9 N 7 9 4 5 1015.1 1013.4 0.0
28/05:00pm 20.1 18.2 6.5 41 7.1 E 6 7 3 4 1014.7 1013.0 0.0
28/04:30pm 20.6 19.0 6.2 39 7.5 NE 4 9 2 5 1014.7 1013.0 0.0
28/04:00pm 20.0 17.8 6.0 40 7.2 N 7 11 4 6 1014.7 1013.0 0.0
28/03:30pm 20.3 17.7 5.9 39 7.4 NNE 9 17 5 9 1014.6 1012.9 0.0
28/03:00pm 20.4 16.9 5.6 38 7.6 N 13 17 7 9 1014.9 1013.2 0.0
28/02:30pm 20.5 17.1 6.1 39 7.5 NNE 13 19 7 10 1015.1 1013.4 0.0
28/02:00pm 20.0 16.6 6.0 40 7.2 NNE 13 20 7 11 1015.6 1013.9 0.0
28/01:30pm 19.8 16.0 5.8 40 7.2 NNE 15 24 8 13 1015.8 1014.1 0.0
28/01:00pm 19.6 15.5 6.0 41 7.0 NNE 17 22 9 12 1016.3 1014.6 0.0
28/12:30pm 18.6 13.8 5.8 43 6.5 NNE 20 28 11 15 1017.0 1015.3 0.0
28/12:00pm 18.6 13.5 5.8 43 6.5 NNE 22 32 12 17 1017.6 1015.9 0.0
28/11:30am 19.4 14.7 6.2 42 6.8 NNE 20 28 11 15 1018.2 1016.6 0.0
28/11:00am 18.9 14.3 6.4 44 6.5 NNE 20 32 11 17 1018.6 1016.9 0.0
28/10:30am 17.9 13.4 6.1 46 6.0 NNE 19 26 10 14 1019.2 1017.6 0.0
28/10:00am 16.8 12.2 6.3 50 5.3 NNE 20 28 11 15 1019.3 1017.7 0.0
28/09:30am 16.0 11.9 6.2 52 4.9 NNE 17 24 9 13 1019.2 1017.6 0.0
28/09:00am 14.5 11.9 6.1 57 4.2 NE 9 17 5 9 1019.4 1017.8 0.0
28/08:30am 13.6 11.7 6.5 62 3.5 NE 6 9 3 5 1019.6 1018.0 0.0
28/08:00am 11.9 10.0 6.6 70 2.6 E 6 9 3 5 1019.2 1017.6 0.0
28/07:30am 11.0 8.8 6.2 72 2.3 ESE 7 9 4 5 1018.2 1016.6 0.0
28/07:00am 11.3 9.3 6.4 72 2.4 ESE 6 7 3 4 1018.3 1016.7 0.0
28/06:30am 10.8 10.0 6.7 76 2.0 CALM 0 4 0 2 1018.1 1016.5 0.0
28/06:00am 10.8 8.7 6.6 75 2.1 E 7 9 4 5 1017.9 1016.3 0.0
28/05:30am 11.4 8.9 6.7 73 2.3 ESE 9 11 5 6 1018.3 1016.7 0.0
28/05:00am 10.9 8.5 7.0 77 1.9 E 9 13 5 7 1018.6 1016.9 0.0
28/04:30am 10.8 8.3 6.6 75 2.1 E 9 11 5 6 1018.9 1017.2 0.0
28/04:00am 10.9 8.8 6.6 75 2.1 E 7 11 4 6 1018.5 1016.8 0.0
28/03:30am 11.5 9.4 6.8 73 2.3 E 7 9 4 5 1018.6 1016.9 0.0
28/03:00am 11.6 9.1 6.7 72 2.4 E 9 11 5 6 1018.3 1016.7 0.0
28/02:30am 12.1 8.9 6.8 70 2.6 E 13 13 7 7 1018.9 1017.2 0.0
28/02:00am 12.1 9.3 6.8 70 2.6 E 11 13 6 7 1019.0 1017.3 0.0
28/01:30am 12.1 9.7 6.8 70 2.6 E 9 11 5 6 1019.1 1017.5 0.0
28/01:00am 12.3 9.5 7.0 70 2.6 E 11 13 6 7 1019.5 1017.9 0.0
28/12:30am 12.8 9.6 7.0 68 2.9 E 13 15 7 8 1019.5 1017.9 0.0
28/12:00am 12.8 9.6 7.0 68 2.9 E 13 17 7 9 1019.7 1018.1 0.0
 
Date/Time
CST
Temp
°C
App
Temp
°C
Dew
Point
°C
Rel
Hum
%
Delta-T
°C
Wind Press
QNH
hPa
Press
MSL
hPa
Rain since
9am
mm
Dir  Spd
km/h
Gust
km/h
Spd
kts
Gust
kts
27/11:30pm 13.2 9.7 7.2 67 3.0 ENE 15 17 8 9 1019.5 1017.9 0.0
27/11:00pm 13.0 10.2 7.0 67 3.0 E 11 13 6 7 1019.8 1018.2 0.0
27/10:30pm 13.4 10.3 7.2 66 3.1 E 13 15 7 8 1019.6 1018.0 0.0
27/10:00pm 13.1 10.3 7.1 67 3.0 ENE 11 13 6 7 1019.8 1018.2 0.0
27/09:30pm 13.9 10.0 7.2 64 3.4 E 17 19 9 10 1020.1 1018.4 0.0
27/09:00pm 13.6 10.5 7.2 65 3.2 ENE 13 17 7 9 1019.7 1018.1 0.0
27/08:30pm 14.4 10.9 7.2 62 3.7 E 15 19 8 10 1019.8 1018.2 0.0
27/08:00pm 14.7 11.2 7.3 61 3.8 E 15 19 8 10 1019.7 1018.1 0.0
27/07:30pm 15.0 12.1 6.6 57 4.2 ENE 11 13 6 7 1019.5 1017.9 0.0
27/07:00pm 16.4 13.2 6.8 53 4.9 E 13 15 7 8 1019.1 1017.5 0.0
27/06:30pm 17.4 14.2 6.9 50 5.4 E 13 17 7 9 1018.9 1017.2 0.0
27/06:00pm 18.7 16.6 6.5 45 6.3 N 7 9 4 5 1018.8 1017.1 0.0
27/05:30pm 20.9 18.8 6.8 40 7.4 NNE 7 13 4 7 1018.7 1017.0 0.0
27/05:00pm 20.9 17.7 6.8 40 7.4 NNE 13 19 7 10 1018.5 1016.8 0.0
27/04:30pm 21.9 19.5 7.0 38 7.9 NNE 9 17 5 9 1018.5 1016.8 0.0
27/04:00pm 22.1 19.0 7.1 38 8.0 NE 13 19 7 10 1018.6 1016.9 0.0
27/03:30pm 21.7 19.0 7.2 39 7.7 NE 11 22 6 12 1018.2 1016.6 0.0
27/03:00pm 20.1 16.5 6.8 42 7.0 NE 15 26 8 14 1018.2 1016.6 0.0
27/02:30pm 21.2 17.7 7.1 40 7.5 NE 15 20 8 11 1018.3 1016.7 0.0
27/02:00pm 20.9 17.9 7.5 42 7.1 NE 13 22 7 12 1018.7 1017.0 0.0
27/01:30pm 20.7 16.5 7.3 42 7.1 ENE 19 28 10 15 1019.1 1017.5 0.0
27/01:00pm 20.1 15.9 7.5 44 6.7 NE 19 28 10 15 1019.6 1018.0 0.0
27/12:30pm 19.7 15.2 7.1 44 6.6 ENE 20 28 11 15 1020.4 1018.8 0.0
27/12:00pm 18.9 14.4 7.0 46 6.2 NE 20 26 11 14 1021.0 1019.4 0.0
27/11:30am 18.5 13.6 7.0 47 6.0 NE 22 30 12 16 1021.7 1020.1 0.0
27/11:00am 17.4 13.0 7.2 51 5.3 ENE 20 28 11 15 1022.1 1020.5 0.0
27/10:30am 16.9 12.7 7.5 54 4.9 ENE 19 24 10 13 1022.4 1020.8 0.0
27/10:00am 16.0 11.7 7.2 56 4.5 ENE 19 26 10 14 1022.5 1020.9 0.0
27/09:30am 15.5 11.3 7.5 59 4.1 ENE 19 26 10 14 1022.3 1020.7 0.0
27/09:00am 14.3 11.7 7.6 64 3.4 ENE 11 17 6 9 1022.4 1020.8 0.0
27/08:30am 12.5 11.6 7.6 72 2.5 ENE 2 7 1 4 1022.2 1020.6 0.0
27/08:00am 10.1 9.5 7.5 84 1.3 CALM 0 0 0 0 1021.8 1020.2 0.0
27/07:30am 9.0 7.8 6.4 84 1.2 ENE 2 6 1 3 1021.3 1019.7 0.0
27/07:00am 9.3 7.4 6.6 83 1.3 ENE 6 7 3 4 1020.8 1019.2 0.0
27/06:30am 9.8 8.3 6.9 82 1.4 NNE 4 6 2 3 1020.5 1018.9 0.0
27/06:00am 10.4 8.4 7.1 80 1.6 NNE 7 7 4 4 1020.2 1018.5 0.0
27/05:30am 10.2 9.5 7.1 81 1.5 CALM 0 0 0 0 1020.3 1018.7 0.0
27/05:00am 10.1 8.6 7.0 81 1.5 NNE 4 6 2 3 1020.3 1018.7 0.0
27/04:30am 9.7 9.0 6.8 82 1.4 CALM 0 0 0 0 1020.1 1018.4 0.0
27/04:00am 9.7 8.2 6.6 81 1.5 NNE 4 7 2 4 1019.7 1018.1 0.0
27/03:30am 9.9 9.2 7.0 82 1.4 CALM 0 0 0 0 1019.7 1018.1 0.0
27/03:00am 9.8 8.4 7.1 83 1.3 NNE 4 7 2 4 1020.2 1018.5 0.0
27/02:30am 9.3 8.1 6.4 82 1.4 NNE 2 7 1 4 1020.0 1018.3 0.0
27/02:00am 9.6 7.4 6.3 80 1.6 NE 7 11 4 6 1020.0 1018.3 0.0
27/01:30am 9.9 7.7 6.1 77 1.8 NNE 7 11 4 6 1020.3 1018.7 0.0
27/01:00am 10.5 8.4 6.6 77 1.9 E 7 13 4 7 1020.5 1018.9 0.0
27/12:30am 10.3 8.4 6.6 78 1.8 E 6 9 3 5 1020.6 1019.0 0.0
27/12:00am 11.1 9.0 6.8 75 2.1 E 7 9 4 5 1020.9 1019.3 0.0
 
Date/Time
CST
Temp
°C
App
Temp
°C
Dew
Point
°C
Rel
Hum
%
Delta-T
°C
Wind Press
QNH
hPa
Press
MSL
hPa
Rain since
9am
mm
Dir  Spd
km/h
Gust
km/h
Spd
kts
Gust
kts
26/11:30pm 12.0 9.1 6.7 70 2.6 E 11 15 6 8 1021.2 1019.6 0.0
26/11:00pm 13.7 10.2 7.0 64 3.4 E 15 19 8 10 1021.2 1019.6 0.0
26/10:30pm 14.0 10.1 7.1 63 3.5 E 17 20 9 11 1021.3 1019.7 0.0
26/10:00pm 14.4 10.5 7.2 62 3.7 ESE 17 24 9 13 1021.5 1019.8 0.0
26/09:30pm 14.3 10.8 7.1 62 3.6 ESE 15 19 8 10 1021.2 1019.6 0.0
26/09:00pm 14.8 10.9 6.9 59 4.0 ESE 17 20 9 11 1021.1 1019.5 0.0
26/08:30pm 15.2 11.2 6.7 57 4.3 SE 17 24 9 13 1021.0 1019.4 0.0
26/08:00pm 15.8 11.5 6.8 55 4.6 SE 19 24 10 13 1020.9 1019.3 0.0
26/07:30pm 16.2 12.6 6.6 53 4.9 SE 15 20 8 11 1020.6 1019.0 0.0
26/07:00pm 16.6 12.9 6.4 51 5.2 ESE 15 20 8 11 1020.3 1018.7 0.0
26/06:30pm 16.9 12.9 6.7 51 5.2 ESE 17 22 9 12 1020.2 1018.5 0.0
26/06:00pm 17.7 14.1 6.6 48 5.7 ESE 15 20 8 11 1019.8 1018.2 0.0
26/05:30pm 19.0 15.0 6.8 45 6.3 SE 17 24 9 13 1019.5 1017.9 0.0
26/05:00pm 19.2 16.7 6.7 44 6.5 SE 9 17 5 9 1019.6 1018.0 0.0
26/04:30pm 19.9 16.7 7.0 43 6.8 E 13 17 7 9 1019.5 1017.9 0.0
26/04:00pm 20.4 17.3 7.1 42 7.0 SE 13 19 7 10 1019.5 1017.9 0.0
26/03:30pm 20.1 16.1 6.5 41 7.1 ESE 17 39 9 21 1019.5 1017.9 0.0
26/03:00pm 21.4 18.6 6.9 39 7.7 SE 11 22 6 12 1019.6 1018.0 0.0
26/02:30pm 21.3 18.2 7.2 40 7.5 E 13 19 7 10 1019.8 1018.2 0.0
26/02:00pm 20.0 16.9 7.4 44 6.7 SSE 13 20 7 11 1020.3 1018.7 0.0
26/01:30pm 20.1 17.7 7.1 43 6.8 ESE 9 20 5 11 1020.8 1019.2 0.0
26/01:00pm 21.0 18.3 7.3 41 7.3 E 11 17 6 9 1021.0 1019.4 0.0
26/12:30pm 21.0 18.5 8.0 43 7.0 E 11 20 6 11 1021.5 1019.8 0.0

Other formats

Comma delimited format used in spreadsheet applications
http://www.bom.gov.au/fwo/IDD60801/IDD60801.94474.axf

JavaScript Object Notation format (JSON) in row-major order
http://www.bom.gov.au/fwo/IDD60801/IDD60801.94474.json

Data quality

Most of these data are generated automatically and are frequently updated. Quality checks on data are not normally performed. It is possible for incorrect values to appear. Refer to information at About Latest Weather Observations and please check the disclaimer before using these data.